Time;durP1;ratioP1;P1;durP2;ratioP2;P2;SDS_P1;SDS_P2;PMS_P1;PMS_P2;Temp;Humidity;BMP_temperature;BMP_pressure;BME280_temperature;BME280_humidity;BME280_pressure;Samples;Min_cycle;Max_cycle;Signal;HPM_P1;HPM_P2
2021/05/21 00:01:20;;;;;;;6.58;5.60;;;;;;;9.45;92.98;97540.33;1753729;82;21046;-74
2021/05/21 00:03:46;;;;;;;6.92;5.72;;;;;;;9.44;92.56;97539.92;1742334;80;21051;-74
2021/05/21 00:06:13;;;;;;;6.58;5.30;;;;;;;9.42;93.39;97546.18;1741478;82;21027;-74
2021/05/21 00:08:39;;;;;;;7.85;5.97;;;;;;;9.38;93.60;97546.71;1741598;82;21122;-74
2021/05/21 00:11:08;;;;;;;6.45;5.35;;;;;;;9.36;93.51;97538.85;1712455;82;21600;-73
2021/05/21 00:13:35;;;;;;;6.90;5.53;;;;;;;9.34;93.80;97547.75;1756014;80;21062;-74
2021/05/21 00:16:01;;;;;;;7.97;5.70;;;;;;;9.36;93.19;97548.11;1753975;80;21488;-73
2021/05/21 00:18:29;;;;;;;5.33;4.72;;;;;;;9.40;92.97;97544.91;1749593;82;21069;-74
2021/05/21 00:20:56;;;;;;;6.22;5.30;;;;;;;9.41;93.28;97549.27;1716337;83;21062;-74
2021/05/21 00:23:23;;;;;;;5.65;4.20;;;;;;;9.44;93.35;97546.54;1696911;83;21058;-74
2021/05/21 00:25:50;;;;;;;5.35;4.17;;;;;;;9.45;93.09;97546.06;1694048;85;21054;-75
2021/05/21 00:28:16;;;;;;;5.25;3.83;;;;;;;9.50;93.25;97552.06;1694033;84;21114;-74
2021/05/21 00:30:43;;;;;;;5.30;4.28;;;;;;;9.51;93.38;97551.17;1694288;84;21511;-74
2021/05/21 00:33:10;;;;;;;6.10;3.90;;;;;;;9.55;93.19;97549.28;1699408;83;21067;-75
2021/05/21 00:35:36;;;;;;;4.62;3.65;;;;;;;9.56;93.40;97549.24;1694209;85;21583;-74
2021/05/21 00:38:03;;;;;;;6.87;4.35;;;;;;;9.59;92.96;97549.13;1695152;82;21493;-74
2021/05/21 00:40:31;;;;;;;4.95;4.45;;;;;;;9.62;93.00;97547.71;1698385;82;21511;-74
2021/05/21 00:42:57;;;;;;;4.62;4.20;;;;;;;9.64;93.19;97551.63;1703487;83;21066;-74
2021/05/21 00:45:24;;;;;;;8.13;4.10;;;;;;;9.63;93.19;97552.08;1694320;85;21066;-74
2021/05/21 00:47:50;;;;;;;6.47;4.87;;;;;;;9.59;93.37;97550.92;1694006;84;21070;-74
2021/05/21 00:50:17;;;;;;;5.95;4.92;;;;;;;9.57;93.46;97547.00;1705295;84;21085;-74
2021/05/21 00:52:45;;;;;;;7.47;5.30;;;;;;;9.55;93.86;97555.42;1708188;84;21035;-75
2021/05/21 00:55:13;;;;;;;5.92;5.33;;;;;;;9.53;93.89;97561.23;1708180;84;21059;-75
2021/05/21 00:57:43;;;;;;;10.88;6.05;;;;;;;9.51;93.54;97563.92;1708204;84;21091;-75
2021/05/21 01:00:12;;;;;;;7.83;5.72;;;;;;;9.48;93.69;97567.14;1707987;84;21131;-75
2021/05/21 01:02:38;;;;;;;7.25;6.37;;;;;;;9.45;94.08;97568.55;1691700;83;21075;-75
2021/05/21 01:05:07;;;;;;;6.58;5.72;;;;;;;9.38;94.59;97567.42;1705200;83;21002;-75
2021/05/21 01:07:35;;;;;;;6.55;5.65;;;;;;;9.35;94.13;97572.80;1684753;84;21121;-74
2021/05/21 01:10:03;;;;;;;9.85;6.33;;;;;;;9.32;95.09;97576.00;1708299;84;21477;-74
2021/05/21 01:12:29;;;;;;;9.63;6.30;;;;;;;9.30;94.26;97565.47;1696122;83;21054;-74
2021/05/21 01:14:58;;;;;;;6.78;6.08;;;;;;;9.29;94.40;97574.32;1690569;85;21096;-74
2021/05/21 01:17:25;;;;;;;6.92;6.12;;;;;;;9.28;94.14;97578.33;1687178;83;21098;-74
2021/05/21 01:19:53;;;;;;;6.80;6.10;;;;;;;9.28;94.89;97576.56;1693742;82;21562;-74
2021/05/21 01:22:20;;;;;;;8.93;6.42;;;;;;;9.26;95.14;97576.20;1691721;85;21186;-74
2021/05/21 01:24:48;;;;;;;11.73;6.70;;;;;;;9.24;95.26;97578.89;1691860;85;21082;-74
2021/05/21 01:27:17;;;;;;;7.30;5.95;;;;;;;9.22;95.06;97577.61;1697585;82;21073;-75
2021/05/21 01:29:45;;;;;;;7.00;6.30;;;;;;;9.19;95.84;97579.05;1706575;84;21087;-75
2021/05/21 01:32:12;;;;;;;7.60;6.70;;;;;;;9.15;95.57;97581.37;1697099;84;21087;-75
2021/05/21 01:34:39;;;;;;;8.48;6.33;;;;;;;9.16;95.08;97580.45;1694733;84;21086;-75
2021/05/21 01:37:19;;;;;;;7.60;6.33;;;;;;;9.15;95.25;97581.81;1707452;82;21063;-75
2021/05/21 01:39:50;;;;;;;7.95;6.55;;;;;;;9.14;95.65;97582.28;1691344;85;21349;-75
2021/05/21 01:42:19;;;;;;;9.13;6.70;;;;;;;9.10;95.65;97578.84;1691807;84;21105;-75
2021/05/21 01:44:46;;;;;;;9.00;6.28;;;;;;;9.11;96.20;97583.22;1691837;85;21134;-75
2021/05/21 01:47:14;;;;;;;7.72;6.60;;;;;;;9.09;95.89;97586.38;1716079;82;21069;-75
2021/05/21 01:49:41;;;;;;;11.97;6.60;;;;;;;9.09;95.45;97583.73;1742896;82;21014;-75
2021/05/21 01:52:08;;;;;;;8.43;6.80;;;;;;;9.10;96.03;97593.86;1743512;82;21554;-75
2021/05/21 01:54:36;;;;;;;8.10;6.28;;;;;;;9.10;95.22;97590.75;1688659;84;21048;-75
2021/05/21 01:57:04;;;;;;;9.73;7.15;;;;;;;9.10;95.49;97589.90;1690584;82;21068;-75
2021/05/21 01:59:32;;;;;;;7.67;6.55;;;;;;;9.10;95.65;97597.35;1743675;82;21045;-75
2021/05/21 02:01:59;;;;;;;8.25;6.80;;;;;;;9.10;95.51;97589.90;1743498;82;21069;-74
2021/05/21 02:04:37;;;;;;;7.12;6.10;;;;;;;9.12;95.37;97594.67;1743547;82;21062;-74
2021/05/21 02:07:09;;;;;;;8.15;6.20;;;;;;;9.14;95.89;97594.19;1735662;82;21002;-74
2021/05/21 02:09:59;;;;;;;6.97;5.80;;;;;;;9.14;96.01;97594.19;1656934;85;21552;-74
2021/05/21 02:12:29;;;;;;;8.00;5.67;;;;;;;9.18;95.14;97606.84;1679992;85;21058;-74
2021/05/21 02:14:59;;;;;;;6.67;5.28;;;;;;;9.19;95.67;97605.48;1680115;85;21105;-77
2021/05/21 02:17:26;;;;;;;5.83;5.03;;;;;;;9.22;95.33;97606.70;1693115;82;21065;-74
2021/05/21 02:19:58;;;;;;;5.60;4.30;;;;;;;9.25;95.55;97601.77;1700486;82;21071;-74
2021/05/21 02:22:24;;;;;;;5.35;4.40;;;;;;;9.29;95.26;97611.78;1698570;84;21100;-73
2021/05/21 02:24:55;;;;;;;8.58;4.85;;;;;;;9.33;95.66;97610.34;1678952;84;21136;-75
2021/05/21 02:27:24;;;;;;;5.90;4.45;;;;;;;9.37;95.49;97610.66;1671924;84;21006;-74
2021/05/21 02:29:54;;;;;;;8.00;4.95;;;;;;;9.43;95.54;97615.34;1672372;86;21059;-74
2021/05/21 02:32:22;;;;;;;8.70;4.80;;;;;;;9.48;95.17;97618.23;1672210;86;21035;-74
2021/05/21 02:34:48;;;;;;;6.45;4.55;;;;;;;9.52;95.03;97621.68;1672238;85;21012;-74
2021/05/21 02:37:16;;;;;;;5.25;4.65;;;;;;;9.50;94.79;97617.75;1673183;83;20988;-74
2021/05/21 02:39:42;;;;;;;6.50;4.95;;;;;;;9.56;94.80;97617.15;1672096;86;21022;-75
2021/05/21 02:42:09;;;;;;;6.10;5.08;;;;;;;9.61;95.00;97626.69;1672333;86;21055;-75
2021/05/21 02:44:37;;;;;;;7.83;5.28;;;;;;;9.66;95.01;97628.29;1681007;84;21127;-75
2021/05/21 02:47:04;;;;;;;6.20;5.60;;;;;;;9.66;94.83;97630.94;1689843;84;21076;-75
2021/05/21 02:49:32;;;;;;;7.60;6.80;;;;;;;9.64;94.69;97637.63;1672293;86;21035;-75
2021/05/21 02:52:02;;;;;;;6.65;5.75;;;;;;;9.63;94.62;97638.52;1722389;83;21046;-75
2021/05/21 02:54:28;;;;;;;7.10;5.87;;;;;;;9.61;94.56;97635.06;1774424;81;21035;-75
2021/05/21 02:56:55;;;;;;;8.13;5.90;;;;;;;9.57;94.02;97632.10;1708131;84;21547;-75
2021/05/21 02:59:21;;;;;;;8.83;6.28;;;;;;;9.48;94.05;97634.59;1742997;82;21003;-75
2021/05/21 03:01:48;;;;;;;8.53;6.20;;;;;;;9.38;94.29;97646.77;1743450;82;21055;-75
2021/05/21 03:04:15;;;;;;;8.10;6.67;;;;;;;9.30;94.51;97650.56;1743409;82;21050;-75
2021/05/21 03:06:41;;;;;;;8.63;6.85;;;;;;;9.25;94.88;97653.33;1743139;82;21504;-75
2021/05/21 03:09:08;;;;;;;8.85;7.15;;;;;;;9.21;94.65;97654.33;1738924;81;21023;-75
2021/05/21 03:11:35;;;;;;;7.28;6.40;;;;;;;9.19;95.03;97658.81;1729551;82;21036;-75
2021/05/21 03:14:02;;;;;;;8.00;6.62;;;;;;;9.14;95.31;97657.64;1722453;82;21055;-75
2021/05/21 03:16:28;;;;;;;12.88;7.78;;;;;;;9.14;94.81;97658.08;1743361;82;21078;-75
2021/05/21 03:18:55;;;;;;;8.58;6.83;;;;;;;9.12;95.07;97660.77;1719768;81;21014;-75
2021/05/21 03:21:22;;;;;;;8.93;7.67;;;;;;;9.10;95.15;97658.63;1726472;82;21117;-75
2021/05/21 03:23:49;;;;;;;9.35;7.33;;;;;;;9.09;94.99;97656.88;1732290;83;21124;-75
2021/05/21 03:26:15;;;;;;;10.00;7.53;;;;;;;9.11;95.34;97663.84;1732236;83;21078;-75
2021/05/21 03:28:42;;;;;;;10.98;7.62;;;;;;;9.10;95.43;97658.16;1771208;80;21045;-75
2021/05/21 03:31:09;;;;;;;9.43;8.08;;;;;;;9.11;95.70;97662.52;1786176;80;21010;-76
2021/05/21 03:33:37;;;;;;;9.70;7.60;;;;;;;9.08;95.39;97660.44;1761029;80;21818;-75
2021/05/21 03:36:06;;;;;;;10.43;7.80;;;;;;;9.09;95.20;97667.00;1748304;81;21054;-76
2021/05/21 03:38:32;;;;;;;11.70;8.33;;;;;;;9.10;95.04;97666.09;1775852;80;21023;-76
2021/05/21 03:40:59;;;;;;;11.83;7.45;;;;;;;9.14;95.28;97671.30;1741328;81;21496;-75
2021/05/21 03:43:26;;;;;;;7.97;7.00;;;;;;;9.14;95.56;97675.27;1762372;81;21018;-75
2021/05/21 03:45:54;;;;;;;11.93;8.10;;;;;;;9.14;95.57;97672.17;1733152;81;21136;-75
2021/05/21 03:48:21;;;;;;;12.10;8.08;;;;;;;9.17;95.68;97677.36;1752346;81;20974;-76
2021/05/21 03:50:48;;;;;;;10.28;7.25;;;;;;;9.20;96.38;97679.04;1762454;81;21093;-75
2021/05/21 03:53:16;;;;;;;7.90;6.90;;;;;;;9.20;95.87;97678.59;1762444;81;21054;-75
2021/05/21 03:55:43;;;;;;;9.10;7.17;;;;;;;9.22;96.07;97675.92;1762223;81;21073;-75
2021/05/21 03:58:10;;;;;;;9.55;7.08;;;;;;;9.22;95.84;97683.37;1743371;81;21017;-75
2021/05/21 04:00:37;;;;;;;9.23;6.97;;;;;;;9.26;95.50;97690.75;1732176;83;21637;-76
2021/05/21 04:03:07;;;;;;;9.73;6.83;;;;;;;9.27;95.44;97689.87;1732198;83;21026;-75
2021/05/21 04:05:35;;;;;;;9.03;6.75;;;;;;;9.29;95.19;97693.77;1748149;81;21046;-75
2021/05/21 04:08:02;;;;;;;8.55;6.60;;;;;;;9.34;94.84;97697.17;1757449;80;21026;-75
2021/05/21 04:10:29;;;;;;;5.75;4.80;;;;;;;9.39;94.54;97697.90;1747256;82;21102;-75
2021/05/21 04:12:56;;;;;;;4.47;3.90;;;;;;;9.45;94.29;97699.03;1744494;81;21512;-74
2021/05/21 04:15:23;;;;;;;4.87;4.37;;;;;;;9.50;91.48;97702.84;1732197;83;21075;-74
2021/05/21 04:17:50;;;;;;;7.25;4.87;;;;;;;9.56;91.72;97707.09;1757854;80;21014;-74
2021/05/21 04:20:16;;;;;;;9.98;5.45;;;;;;;9.64;92.18;97709.91;1784825;80;21038;-75
2021/05/21 04:22:43;;;;;;;6.87;5.65;;;;;;;9.69;93.16;97706.27;1677263;83;21067;-75
2021/05/21 04:25:11;;;;;;;8.55;5.80;;;;;;;9.74;93.09;97709.19;1671433;86;21130;-75
2021/05/21 04:27:38;;;;;;;10.88;5.50;;;;;;;9.81;93.10;97715.16;1692562;83;21062;-74
2021/05/21 04:30:07;;;;;;;6.83;5.65;;;;;;;9.86;93.09;97717.20;1683940;84;21511;-74
2021/05/21 04:32:33;;;;;;;11.28;5.25;;;;;;;9.85;92.88;97715.45;1700198;84;21525;-74
2021/05/21 04:35:00;;;;;;;8.43;5.05;;;;;;;9.86;92.29;97717.20;1699638;84;21079;-75
2021/05/21 04:37:26;;;;;;;5.92;5.33;;;;;;;9.85;92.33;97719.42;1683984;83;21054;-75
2021/05/21 04:39:55;;;;;;;8.58;5.95;;;;;;;9.95;92.37;97727.08;1730049;83;21069;-74
2021/05/21 04:42:21;;;;;;;8.58;5.35;;;;;;;9.99;92.69;97722.09;1774385;81;21500;-74
2021/05/21 04:44:48;;;;;;;8.48;5.87;;;;;;;10.02;92.19;97728.16;1708345;84;21032;-74
2021/05/21 04:47:14;;;;;;;7.72;5.70;;;;;;;10.04;91.96;97725.02;1736808;81;21054;-74
2021/05/21 04:49:41;;;;;;;10.82;5.92;;;;;;;10.04;91.77;97722.37;1733546;82;21500;-74
2021/05/21 04:52:09;;;;;;;9.15;6.20;;;;;;;10.07;92.27;97725.38;1733539;82;21047;-75
2021/05/21 04:54:38;;;;;;;8.40;5.78;;;;;;;10.12;92.23;97727.42;1708205;82;21042;-75
2021/05/21 04:57:06;;;;;;;6.80;6.10;;;;;;;10.16;92.12;97729.50;1755460;81;21043;-75
2021/05/21 04:59:34;;;;;;;7.92;5.90;;;;;;;10.15;91.70;97728.66;1738309;82;21080;-75
2021/05/21 05:02:02;;;;;;;7.08;5.92;;;;;;;10.16;91.70;97730.38;1743210;82;21020;-75
2021/05/21 05:04:29;;;;;;;8.13;5.97;;;;;;;10.18;91.96;97726.37;1743260;82;21051;-75
2021/05/21 05:06:55;;;;;;;7.10;5.60;;;;;;;10.20;91.67;97723.20;1737388;81;21027;-75
2021/05/21 05:09:23;;;;;;;9.23;5.67;;;;;;;10.20;91.26;97732.47;1733363;83;21020;-74
2021/05/21 05:11:55;;;;;;;9.15;6.75;;;;;;;10.20;91.37;97726.30;1733611;83;21142;-75
2021/05/21 05:14:23;;;;;;;7.87;6.62;;;;;;;10.23;91.57;97731.06;1735523;81;22279;-74
2021/05/21 05:16:49;;;;;;;7.67;6.65;;;;;;;10.26;91.64;97734.06;1757210;81;21106;-74
2021/05/21 05:19:16;;;;;;;8.48;6.20;;;;;;;10.28;92.14;97744.14;1752649;81;21020;-74
2021/05/21 05:21:45;;;;;;;8.80;6.55;;;;;;;10.29;91.81;97736.14;1721863;82;21079;-74
2021/05/21 05:24:20;;;;;;;8.48;5.85;;;;;;;10.32;92.09;97740.48;1722393;83;21039;-74
2021/05/21 05:26:48;;;;;;;7.95;6.78;;;;;;;10.35;92.11;97736.86;1752934;80;21082;-74
2021/05/21 05:29:15;;;;;;;6.78;6.00;;;;;;;10.38;91.93;97726.17;1760558;81;21129;-75
2021/05/21 05:31:47;;;;;;;8.38;6.17;;;;;;;10.41;91.94;97734.88;1754088;82;21033;-75
2021/05/21 05:34:15;;;;;;;9.88;6.53;;;;;;;10.48;91.70;97736.02;1753943;81;21019;-75
2021/05/21 05:36:42;;;;;;;7.33;5.83;;;;;;;10.52;90.12;97728.38;1748564;80;21117;-75
2021/05/21 05:39:09;;;;;;;11.40;6.80;;;;;;;10.55;90.67;97730.94;1734465;80;21064;-75
2021/05/21 05:41:37;;;;;;;6.67;5.30;;;;;;;10.59;90.44;97733.87;1687353;83;21062;-75
2021/05/21 05:44:07;;;;;;;6.45;5.80;;;;;;;10.64;90.29;97736.38;1729494;82;20979;-75
2021/05/21 05:46:35;;;;;;;8.80;5.92;;;;;;;10.69;89.95;97731.34;1728379;82;21066;-75
2021/05/21 05:49:01;;;;;;;8.43;5.72;;;;;;;10.74;90.29;97737.80;1752700;80;21073;-75
2021/05/21 05:51:28;;;;;;;8.00;5.78;;;;;;;10.78;90.22;97740.75;1740374;81;21026;-75
2021/05/21 05:53:57;;;;;;;7.08;6.03;;;;;;;10.83;89.87;97733.95;1724003;83;21527;-74
2021/05/21 05:56:23;;;;;;;8.73;6.85;;;;;;;10.92;90.19;97732.78;1723807;83;21074;-75
2021/05/21 05:58:49;;;;;;;17.23;10.70;;;;;;;10.96;89.81;97733.93;1724056;83;21547;-75
2021/05/21 06:01:16;;;;;;;7.42;5.33;;;;;;;11.05;90.00;97730.56;1735631;81;21026;-75
2021/05/21 06:03:42;;;;;;;8.45;5.10;;;;;;;11.14;89.03;97733.33;1753413;82;21044;-75
2021/05/21 06:06:09;;;;;;;11.18;5.08;;;;;;;11.27;87.03;97737.72;1754087;82;21153;-75
2021/05/21 06:08:35;;;;;;;6.67;5.47;;;;;;;11.38;87.45;97738.66;1753936;82;21023;-75
2021/05/21 06:11:02;;;;;;;8.55;5.33;;;;;;;11.50;87.66;97732.88;1749508;81;20995;-75
2021/05/21 06:13:28;;;;;;;7.75;5.22;;;;;;;11.60;86.79;97736.06;1737394;82;21503;-75
2021/05/21 06:15:55;;;;;;;9.05;4.80;;;;;;;11.71;86.92;97742.30;1753841;82;21070;-75
2021/05/21 06:18:22;;;;;;;4.53;4.12;;;;;;;11.80;85.97;97739.30;1765701;80;21452;-75
2021/05/21 06:20:49;;;;;;;6.80;4.62;;;;;;;11.87;84.93;97738.13;1776737;80;21582;-75
2021/05/21 06:23:18;;;;;;;4.97;3.90;;;;;;;11.98;85.72;97735.50;1756967;81;21014;-75
2021/05/21 06:28:25;;;;;;;4.83;3.02;;;;;;;12.14;80.11;97737.13;1749830;82;21121;-74
2021/05/21 06:30:53;;;;;;;4.92;2.52;;;;;;;12.28;81.41;97737.88;1753814;82;21043;-74
2021/05/21 06:33:20;;;;;;;4.35;2.72;;;;;;;12.39;73.77;97737.45;1768172;80;21480;-75
2021/05/21 06:35:49;;;;;;;2.98;2.50;;;;;;;12.49;76.46;97739.25;1750984;80;21081;-75
2021/05/21 06:38:16;;;;;;;3.08;2.17;;;;;;;12.60;76.91;97738.36;1752819;82;21059;-75
2021/05/21 06:40:43;;;;;;;2.92;2.50;;;;;;;12.74;77.23;97735.59;1753707;82;21034;-75
2021/05/21 06:43:12;;;;;;;4.97;2.60;;;;;;;12.84;79.36;97736.05;1756782;80;21484;-73
2021/05/21 06:45:40;;;;;;;3.92;2.37;;;;;;;12.94;75.33;97731.59;1746263;81;21527;-73
2021/05/21 06:48:08;;;;;;;4.03;2.20;;;;;;;13.10;74.04;97732.25;1749847;81;21526;-73
2021/05/21 06:50:34;;;;;;;3.60;2.45;;;;;;;13.21;70.25;97731.78;1760970;81;21074;-74
2021/05/21 06:53:01;;;;;;;3.33;2.30;;;;;;;13.32;72.65;97736.61;1716099;82;21078;-75
2021/05/21 06:55:28;;;;;;;4.85;2.55;;;;;;;13.38;69.37;97730.15;1749594;81;21036;-75
2021/05/21 06:57:54;;;;;;;6.37;2.95;;;;;;;13.50;71.40;97732.30;1763403;81;21522;-76
2021/05/21 07:00:21;;;;;;;4.45;3.02;;;;;;;13.52;68.92;97725.09;1756810;81;21007;-75
2021/05/21 07:02:48;;;;;;;4.78;3.22;;;;;;;13.61;70.54;97726.95;1754929;80;21476;-74
2021/05/21 07:05:15;;;;;;;4.78;2.90;;;;;;;13.62;71.12;97731.33;1756679;81;21176;-74
2021/05/21 07:07:41;;;;;;;4.28;2.50;;;;;;;13.68;72.18;97729.70;1748925;81;21010;-75
2021/05/21 07:10:10;;;;;;;3.92;2.62;;;;;;;13.67;68.47;97729.31;1755794;81;21094;-74
2021/05/21 07:12:37;;;;;;;12.58;8.15;;;;;;;13.67;70.68;97723.98;1761926;80;21061;-73
2021/05/21 07:15:06;;;;;;;5.87;3.58;;;;;;;13.72;72.54;97728.63;1743492;80;21034;-71
2021/05/21 07:17:33;;;;;;;9.43;6.00;;;;;;;13.75;73.24;97727.17;1762859;81;20971;-73
2021/05/21 07:20:00;;;;;;;6.35;3.55;;;;;;;13.76;73.08;97722.23;1731272;81;21026;-74
2021/05/21 07:22:26;;;;;;;10.45;3.10;;;;;;;13.77;72.87;97727.07;1748966;81;21060;-79
2021/05/21 07:24:53;;;;;;;4.65;2.80;;;;;;;13.78;71.83;97720.83;1746761;81;21129;-75
2021/05/21 07:27:19;;;;;;;5.55;2.65;;;;;;;13.83;73.14;97724.14;1743716;81;21046;-83
2021/05/21 07:29:46;;;;;;;5.50;2.72;;;;;;;13.89;73.25;97725.17;1751240;81;21069;-78
2021/05/21 07:32:13;;;;;;;5.70;3.45;;;;;;;13.96;73.41;97730.59;1745349;81;21523;-78
2021/05/21 07:34:39;;;;;;;5.92;3.30;;;;;;;13.99;71.78;97727.79;1711916;82;20984;-79
2021/05/21 07:37:06;;;;;;;6.65;3.27;;;;;;;14.06;72.43;97727.48;1734305;81;21067;-79
2021/05/21 07:39:33;;;;;;;5.22;2.85;;;;;;;14.14;72.33;97729.33;1743758;81;21023;-78
2021/05/21 07:42:00;;;;;;;3.20;2.80;;;;;;;14.22;72.05;97734.28;1753947;81;21090;-78
2021/05/21 07:44:26;;;;;;;3.72;2.35;;;;;;;14.27;72.46;97736.25;1752535;81;21481;-78
2021/05/21 07:46:53;;;;;;;2.70;2.27;;;;;;;14.30;70.09;97741.89;1748868;81;21448;-78
2021/05/21 07:49:24;;;;;;;2.98;2.50;;;;;;;14.30;67.61;97742.77;1747916;81;21129;-78
2021/05/21 07:51:54;;;;;;;5.03;2.40;;;;;;;14.32;65.15;97743.55;1751177;81;21691;-78
2021/05/21 07:54:22;;;;;;;6.00;2.47;;;;;;;14.36;67.00;97748.25;1711075;83;21003;-77
2021/05/21 07:56:48;;;;;;;4.12;2.55;;;;;;;14.45;68.33;97744.30;1747759;81;21052;-76
2021/05/21 07:59:16;;;;;;;3.95;2.60;;;;;;;14.54;68.07;97741.62;1753646;81;21053;-76
2021/05/21 08:01:43;;;;;;;19.98;14.60;;;;;;;14.64;68.35;97741.10;1745637;81;21067;-77
2021/05/21 08:04:10;;;;;;;4.08;2.27;;;;;;;14.83;67.50;97742.00;1745229;81;21014;-76
2021/05/21 08:06:41;;;;;;;4.00;2.30;;;;;;;14.99;68.60;97736.74;1747945;81;21031;-77
2021/05/21 08:09:09;;;;;;;3.25;2.30;;;;;;;15.07;68.30;97734.52;1747431;81;21516;-75
2021/05/21 08:11:36;;;;;;;2.55;2.27;;;;;;;15.05;59.10;97735.08;1740961;81;21031;-76
2021/05/21 08:14:03;;;;;;;2.27;1.90;;;;;;;15.08;60.05;97729.59;1755325;81;21460;-76
2021/05/21 08:16:30;;;;;;;2.45;2.02;;;;;;;15.12;61.75;97730.28;1747051;81;21169;-76
2021/05/21 08:18:58;;;;;;;2.25;2.05;;;;;;;15.08;61.35;97730.05;1753832;81;21093;-76
2021/05/21 08:21:25;;;;;;;2.95;1.90;;;;;;;14.99;57.53;97738.92;1753349;81;21051;-76
2021/05/21 08:23:52;;;;;;;6.78;2.40;;;;;;;14.93;57.16;97742.38;1757156;81;21098;-76
2021/05/21 08:26:22;;;;;;;3.15;2.10;;;;;;;14.96;60.45;97738.22;1757227;80;21019;-77
2021/05/21 08:28:47;;;;;;;2.62;2.17;;;;;;;14.87;57.67;97740.91;1754982;81;21038;-76
2021/05/21 08:31:14;;;;;;;4.00;2.42;;;;;;;14.83;59.25;97745.54;1756230;81;21503;-76
2021/05/21 08:33:43;;;;;;;3.92;2.08;;;;;;;14.82;57.28;97748.28;1689843;83;21043;-76
2021/05/21 08:36:10;;;;;;;3.58;2.10;;;;;;;14.89;58.83;97737.22;1750722;80;21074;-76
2021/05/21 08:38:41;;;;;;;7.72;2.22;;;;;;;14.99;58.40;97739.41;1757640;80;21173;-76
2021/05/21 08:41:10;;;;;;;2.52;2.10;;;;;;;15.09;58.39;97737.11;1741195;80;21471;-75
2021/05/21 08:43:41;;;;;;;2.20;2.00;;;;;;;15.14;58.25;97737.73;1754294;80;21027;-75
2021/05/21 08:46:05;;;;;;;3.20;2.10;;;;;;;15.18;59.20;97736.17;1754511;81;21054;-73
2021/05/21 08:48:31;;;;;;;6.15;2.45;;;;;;;15.20;59.38;97747.23;1760429;81;21491;-76
2021/05/21 08:50:58;;;;;;;6.53;5.15;;;;;;;15.27;61.01;97749.95;1751485;81;21122;-75
2021/05/21 08:53:24;;;;;;;8.30;5.30;;;;;;;15.28;57.89;97748.55;1752695;81;21511;-75
2021/05/21 08:55:52;;;;;;;3.47;2.60;;;;;;;15.38;57.44;97742.27;1743884;81;21047;-75
2021/05/21 08:58:19;;;;;;;6.00;2.00;;;;;;;15.54;58.43;97747.61;1753477;81;21015;-74
2021/05/21 09:00:45;;;;;;;2.45;1.82;;;;;;;15.68;58.52;97733.53;1753467;80;21065;-74
2021/05/21 09:03:25;;;;;;;3.58;2.00;;;;;;;15.84;57.86;97740.70;1758825;81;21026;-73
2021/05/21 09:06:20;;;;;;;5.33;1.95;;;;;;;15.92;54.79;97737.14;1754984;81;21524;-74
2021/05/21 09:08:59;;;;;;;2.83;1.70;;;;;;;16.07;55.80;97743.45;1757952;81;21372;-74
2021/05/21 09:11:40;;;;;;;3.02;1.90;;;;;;;16.15;53.05;97743.02;1750696;80;21010;-74
2021/05/21 09:14:20;;;;;;;3.25;1.82;;;;;;;16.21;54.15;97738.68;1754840;81;21038;-76
2021/05/21 09:16:49;;;;;;;2.65;1.75;;;;;;;16.35;55.64;97737.87;1689594;85;21019;-76
2021/05/21 09:19:24;;;;;;;4.05;2.00;;;;;;;16.51;54.94;97735.65;1757866;81;21043;-75
2021/05/21 09:22:07;;;;;;;4.22;1.90;;;;;;;16.72;54.07;97738.02;1751330;81;21472;-76
2021/05/21 09:24:45;;;;;;;3.00;2.12;;;;;;;16.89;53.68;97744.58;1745805;81;21497;-76
2021/05/21 09:27:17;;;;;;;4.22;1.80;;;;;;;17.07;54.50;97743.10;1725035;81;21114;-76
2021/05/21 09:29:48;;;;;;;5.87;2.02;;;;;;;17.10;49.71;97738.91;1743734;81;21476;-76
2021/05/21 09:32:34;;;;;;;4.12;1.85;;;;;;;17.18;53.41;97730.91;1738760;81;21556;-75
2021/05/21 09:35:12;;;;;;;3.50;1.60;;;;;;;17.27;49.82;97734.34;1741576;81;21012;-73
2021/05/21 09:37:46;;;;;;;2.83;1.70;;;;;;;17.27;49.30;97736.55;1750049;81;21087;-73
2021/05/21 09:40:21;;;;;;;1.90;1.65;;;;;;;17.28;49.67;97724.03;1745952;81;21110;-75
2021/05/21 09:43:03;;;;;;;3.52;2.62;;;;;;;17.51;50.54;97723.94;1745227;81;21055;-72
2021/05/21 09:45:39;;;;;;;1.60;1.50;;;;;;;17.74;51.63;97728.80;1736356;81;21066;-74
2021/05/21 09:48:09;;;;;;;2.77;1.85;;;;;;;17.78;47.32;97735.20;1745111;81;21102;-72
2021/05/21 09:50:53;;;;;;;3.92;1.87;;;;;;;17.76;45.54;97730.43;1716136;81;21038;-72
2021/05/21 09:53:24;;;;;;;3.92;1.60;;;;;;;17.72;48.37;97726.22;1740905;81;21051;-73
2021/05/21 09:56:00;;;;;;;4.53;1.72;;;;;;;17.84;48.04;97725.05;1752424;81;21059;-72
2021/05/21 09:58:36;;;;;;;5.55;3.95;;;;;;;17.94;49.81;97723.02;1750105;81;21043;-72
2021/05/21 10:01:14;;;;;;;10.43;4.83;;;;;;;18.07;49.64;97718.26;1748817;81;21077;-71
2021/05/21 10:03:53;;;;;;;4.53;1.62;;;;;;;18.15;49.71;97723.12;1740416;81;21055;-73
2021/05/21 10:06:25;;;;;;;3.50;1.40;;;;;;;18.25;47.10;97713.51;1741902;81;21453;-75
2021/05/21 10:08:55;;;;;;;2.33;1.60;;;;;;;18.43;48.50;97720.81;1732859;81;20981;-75
2021/05/21 10:11:20;;;;;;;4.40;1.45;;;;;;;18.26;45.17;97720.59;1751015;81;21026;-75
2021/05/21 10:13:46;;;;;;;1.90;1.70;;;;;;;18.25;44.16;97726.92;1740296;81;21094;-75
2021/05/21 10:16:19;;;;;;;1.77;1.50;;;;;;;18.33;45.61;97722.39;1735289;81;21083;-74
2021/05/21 10:18:51;;;;;;;1.95;1.47;;;;;;;18.41;47.15;97718.73;1742414;81;21090;-74
2021/05/21 10:21:21;;;;;;;4.85;1.70;;;;;;;18.40;45.73;97716.98;1743931;81;21043;-73
2021/05/21 10:24:07;;;;;;;2.35;1.50;;;;;;;18.54;47.10;97724.60;1741026;81;21595;-74
2021/05/21 10:26:38;;;;;;;3.10;1.52;;;;;;;18.68;47.68;97719.17;1669656;84;21390;-72
2021/05/21 10:29:08;;;;;;;2.17;1.50;;;;;;;18.90;46.11;97710.14;1735284;81;21178;-72
2021/05/21 10:31:38;;;;;;;1.72;1.45;;;;;;;18.85;42.79;97709.13;1748871;81;21059;-73
2021/05/21 10:34:18;;;;;;;2.05;1.35;;;;;;;18.89;44.66;97705.75;1739008;81;21778;-74
2021/05/21 10:37:30;;;;;;;3.33;2.20;;;;;;;18.69;41.24;97711.99;1747752;81;21555;-75
2021/05/21 10:40:32;;;;;;;3.65;1.98;;;;;;;18.90;44.65;97711.02;1733803;82;21474;-74
2021/05/21 10:43:21;;;;;;;3.25;1.90;;;;;;;20.09;44.01;97698.27;1742933;81;21626;-75
2021/05/21 10:45:55;;;;;;;1.70;1.30;;;;;;;21.63;42.89;97691.14;1713686;82;21011;-73
2021/05/21 10:48:27;;;;;;;6.10;1.45;;;;;;;21.70;41.42;97696.42;1724172;82;21508;-73
2021/05/21 10:51:13;;;;;;;2.25;1.20;;;;;;;21.26;37.52;97694.08;1672890;83;21532;-73
2021/05/21 10:53:43;;;;;;;1.92;1.45;;;;;;;22.55;41.22;97690.03;1728840;81;21043;-73
2021/05/21 10:56:10;;;;;;;1.50;1.17;;;;;;;23.88;35.24;97679.22;1710852;82;21499;-74
2021/05/21 10:58:53;;;;;;;3.25;1.50;;;;;;;24.51;31.01;97670.79;1727297;81;21599;-73
2021/05/21 11:01:19;;;;;;;1.92;1.37;;;;;;;25.23;32.71;97677.74;1752464;81;21624;-73
2021/05/21 11:04:06;;;;;;;2.22;1.30;;;;;;;25.89;33.69;97667.44;1682740;84;21498;-73
2021/05/21 11:06:45;;;;;;;1.50;1.40;;;;;;;26.77;33.36;97671.42;1739706;82;21011;-74
2021/05/21 11:09:19;;;;;;;2.37;1.50;;;;;;;26.99;31.54;97673.34;1740615;82;21006;-74
2021/05/21 11:11:59;;;;;;;4.05;1.40;;;;;;;27.44;31.74;97659.16;1731834;81;21036;-73
2021/05/21 11:14:33;;;;;;;2.20;1.30;;;;;;;28.15;31.73;97656.77;1744335;81;21055;-73
2021/05/21 11:17:26;;;;;;;2.75;1.35;;;;;;;28.52;30.13;97653.30;1722084;82;21063;-73
2021/05/21 11:20:00;;;;;;;1.20;1.10;;;;;;;29.05;30.62;97665.23;1746615;82;21034;-73
2021/05/21 11:22:32;;;;;;;2.05;1.65;;;;;;;29.68;27.78;97661.91;1726480;81;21471;-74
2021/05/21 11:25:16;;;;;;;2.02;1.30;;;;;;;30.14;28.34;97659.84;1741100;82;21023;-73
2021/05/21 11:27:43;;;;;;;2.00;1.20;;;;;;;30.52;24.86;97660.46;1732497;82;21035;-73
2021/05/21 11:30:18;;;;;;;1.90;1.30;;;;;;;29.55;23.29;97645.55;1733270;80;21578;-73
2021/05/21 11:32:44;;;;;;;13.45;12.25;;;;;;;29.16;21.24;97655.84;1744662;81;21033;-73
2021/05/21 11:35:13;;;;;;;2.65;1.10;;;;;;;29.20;24.42;97651.75;1724047;82;21081;-74
2021/05/21 11:37:41;;;;;;;2.47;1.20;;;;;;;28.41;25.16;97647.16;1736244;81;21090;-74
2021/05/21 11:40:09;;;;;;;1.50;1.40;;;;;;;27.54;27.17;97653.09;1730633;81;21053;-74
2021/05/21 11:42:36;;;;;;;3.87;1.40;;;;;;;26.86;26.24;97656.89;1741554;81;21528;-74
2021/05/21 11:45:06;;;;;;;2.58;1.32;;;;;;;26.69;26.90;97655.90;1718507;82;21053;-74
2021/05/21 11:47:39;;;;;;;5.10;1.30;;;;;;;26.18;26.67;97660.48;1742277;82;21330;-74
2021/05/21 11:50:10;;;;;;;2.87;1.37;;;;;;;24.31;28.12;97667.23;1729640;81;21031;-74